Time,TemperatureF,DewpointF,PressureIn,WindDirection,WindDirectionDegrees,WindSpeedMPH,WindSpeedGustMPH,Humidity,HourlyPrecipIn,Conditions,Clouds,dailyrainin,SoftwareType,DateUTC
2013-06-12 00:03:00,82.0,77.0,30.03,ESE,122,0.0,0.0,85,0.00,,,0.00,,2013-06-12 04:03:00,
2013-06-12 00:13:00,82.0,77.0,30.03,ESE,122,0.0,0.0,85,0.00,,,0.00,,2013-06-12 04:13:00,
2013-06-12 00:23:00,83.0,78.0,30.02,SE,145,0.0,0.0,85,0.00,,,0.00,,2013-06-12 04:23:00,
2013-06-12 00:33:00,83.0,78.0,30.02,SSE,163,0.0,0.0,85,0.00,,,0.00,,2013-06-12 04:33:00,
2013-06-12 00:42:00,83.0,78.0,30.02,SE,131,0.0,0.0,84,0.00,,,0.00,,2013-06-12 04:42:00,
2013-06-12 00:53:00,83.0,78.0,30.02,SE,131,0.0,0.0,84,0.00,,,0.00,,2013-06-12 04:53:00,
2013-06-12 01:03:00,83.0,78.0,30.02,SSE,158,0.0,0.0,84,0.00,,,0.00,,2013-06-12 05:03:00,
2013-06-12 01:12:00,83.0,78.0,30.01,South,171,0.0,0.0,84,0.00,,,0.00,,2013-06-12 05:12:00,
2013-06-12 01:22:00,83.0,78.0,30.01,South,171,0.0,0.0,84,0.00,,,0.00,,2013-06-12 05:22:00,
2013-06-12 01:32:00,83.0,78.0,30.01,South,176,0.0,0.0,85,0.00,,,0.00,,2013-06-12 05:32:00,
2013-06-12 01:42:00,83.0,78.0,30.01,South,182,0.0,0.0,86,0.00,,,0.00,,2013-06-12 05:42:00,
2013-06-12 01:52:00,83.0,78.0,30.01,South,182,0.0,0.0,86,0.00,,,0.00,,2013-06-12 05:52:00,
2013-06-12 02:02:00,83.0,78.0,30.01,South,178,0.0,0.0,86,0.00,,,0.00,,2013-06-12 06:02:00,
2013-06-12 02:12:00,83.0,78.0,30.01,South,178,0.0,0.0,86,0.00,,,0.00,,2013-06-12 06:12:00,
2013-06-12 02:22:00,83.0,78.0,30.01,SSE,158,0.0,0.0,86,0.00,,,0.00,,2013-06-12 06:22:00,
2013-06-12 02:32:00,83.0,78.0,30.01,SSE,158,0.0,0.0,86,0.00,,,0.00,,2013-06-12 06:32:00,
2013-06-12 02:42:00,82.0,77.0,30.01,South,172,0.0,0.0,86,0.00,,,0.00,,2013-06-12 06:42:00,
2013-06-12 02:52:00,82.0,77.0,30.01,South,172,0.0,0.0,86,0.00,,,0.00,,2013-06-12 06:52:00,
2013-06-12 03:02:00,83.0,78.0,30.01,South,175,0.0,0.0,86,0.00,,,0.00,,2013-06-12 07:02:00,
2013-06-12 03:12:00,83.0,78.0,30.01,SSW,192,0.0,0.0,86,0.00,,,0.00,,2013-06-12 07:12:00,
2013-06-12 03:22:00,82.0,78.0,30.01,SSE,163,0.0,0.0,87,0.00,,,0.00,,2013-06-12 07:22:00,
2013-06-12 03:33:00,82.0,78.0,30.00,South,181,0.0,0.0,87,0.00,,,0.00,,2013-06-12 07:33:00,
2013-06-12 03:43:00,82.0,78.0,30.01,South,180,0.0,0.0,87,0.00,,,0.00,,2013-06-12 07:43:00,
2013-06-12 03:53:00,82.0,78.0,30.00,South,179,0.0,0.0,87,0.00,,,0.00,,2013-06-12 07:53:00,
2013-06-12 04:02:00,82.0,78.0,30.00,South,176,0.0,0.0,87,0.00,,,0.00,,2013-06-12 08:02:00,
2013-06-12 04:12:00,82.0,78.0,30.00,South,169,0.0,0.0,87,0.00,,,0.00,,2013-06-12 08:12:00,
2013-06-12 04:22:00,82.0,78.0,30.00,South,190,0.0,0.0,87,0.00,,,0.00,,2013-06-12 08:22:00,
2013-06-12 04:33:00,82.0,78.0,30.00,South,190,0.0,0.0,87,0.00,,,0.00,,2013-06-12 08:33:00,
2013-06-12 04:43:00,82.0,78.0,30.00,South,185,0.0,0.0,88,0.02,,,0.02,,2013-06-12 08:43:00,
2013-06-12 04:53:00,81.0,77.0,30.00,WSW,254,0.0,0.0,87,0.02,,,0.02,,2013-06-12 08:53:00,
2013-06-12 05:01:00,81.0,77.0,30.01,SW,226,0.0,0.0,88,0.04,,,0.04,,2013-06-12 09:01:00,
2013-06-12 05:11:00,80.0,76.0,30.02,WNW,287,0.0,0.0,88,0.06,,,0.06,,2013-06-12 09:11:00,
2013-06-12 05:22:00,79.0,75.0,30.01,WNW,300,0.0,0.0,88,0.17,,,0.17,,2013-06-12 09:22:00,
2013-06-12 05:33:00,79.0,75.0,30.01,West,272,0.0,0.0,89,0.28,,,0.28,,2013-06-12 09:33:00,
2013-06-12 05:42:00,79.0,75.0,30.01,West,272,0.0,0.0,89,0.28,,,0.28,,2013-06-12 09:42:00,
2013-06-12 05:53:00,79.0,76.0,30.00,West,271,0.0,0.0,90,0.31,,,0.33,,2013-06-12 09:53:00,
2013-06-12 06:02:00,79.0,76.0,30.00,West,271,0.0,0.0,90,0.29,,,0.33,,2013-06-12 10:02:00,
2013-06-12 06:11:00,79.0,76.0,30.01,WSW,247,0.0,0.0,91,0.27,,,0.33,,2013-06-12 10:11:00,
2013-06-12 06:23:00,80.0,77.0,30.01,South,188,0.0,0.0,92,0.16,,,0.33,,2013-06-12 10:23:00,
2013-06-12 06:33:00,80.0,77.0,30.01,SSE,163,0.0,0.0,92,0.04,,,0.33,,2013-06-12 10:33:00,
2013-06-12 06:43:00,80.0,77.0,30.01,South,180,0.0,0.0,91,0.01,,,0.33,,2013-06-12 10:43:00,
2013-06-12 06:53:00,80.0,77.0,30.01,South,180,0.0,0.0,91,0.00,,,0.33,,2013-06-12 10:53:00,
2013-06-12 07:02:00,80.0,77.0,30.02,SSW,200,0.0,0.0,91,0.00,,,0.33,,2013-06-12 11:02:00,
2013-06-12 07:12:00,80.0,77.0,30.02,SW,231,0.0,0.0,91,0.00,,,0.33,,2013-06-12 11:12:00,
2013-06-12 07:24:00,81.0,78.0,30.02,South,188,0.0,0.0,91,0.00,,,0.33,,2013-06-12 11:24:00,
2013-06-12 07:33:00,81.0,78.0,30.02,South,191,0.0,0.0,91,0.00,,,0.33,,2013-06-12 11:33:00,
2013-06-12 07:43:00,81.0,78.0,30.03,South,191,0.0,0.0,90,0.00,,,0.33,,2013-06-12 11:43:00,
2013-06-12 07:53:00,81.0,78.0,30.03,NW,306,0.0,0.0,91,0.00,,,0.33,,2013-06-12 11:53:00,
2013-06-12 08:02:00,81.0,78.0,30.03,NW,313,0.0,0.0,91,0.00,,,0.33,,2013-06-12 12:02:00,
2013-06-12 08:11:00,81.0,78.0,30.03,WNW,287,0.0,0.0,91,0.00,,,0.33,,2013-06-12 12:11:00,
2013-06-12 08:23:00,81.0,78.0,30.04,West,278,0.0,0.0,91,0.00,,,0.33,,2013-06-12 12:23:00,
2013-06-12 08:33:00,81.0,78.0,30.04,West,278,0.0,0.0,91,0.00,,,0.33,,2013-06-12 12:33:00,
2013-06-12 08:42:00,81.0,78.0,30.04,West,278,0.0,0.0,90,0.00,,,0.33,,2013-06-12 12:42:00,
2013-06-12 08:53:00,82.0,79.0,30.04,West,278,0.0,0.0,90,0.00,,,0.33,,2013-06-12 12:53:00,
2013-06-12 09:01:00,82.0,79.0,30.04,West,278,0.0,0.0,90,0.00,,,0.33,,2013-06-12 13:01:00,
2013-06-12 09:12:00,82.0,78.0,30.04,WSW,245,0.0,0.0,89,0.00,,,0.33,,2013-06-12 13:12:00,
2013-06-12 09:22:00,82.0,78.0,30.04,WSW,245,0.0,0.0,89,0.00,,,0.33,,2013-06-12 13:22:00,
2013-06-12 09:33:00,83.0,78.0,30.04,West,269,0.0,0.0,86,0.00,,,0.33,,2013-06-12 13:33:00,
2013-06-12 09:43:00,83.0,78.0,30.04,West,269,0.0,0.0,85,0.00,,,0.33,,2013-06-12 13:43:00,
2013-06-12 09:53:00,84.0,79.0,30.04,NNE,15,0.0,0.0,85,0.00,,,0.33,,2013-06-12 13:53:00,
2013-06-12 10:02:00,85.0,80.0,30.04,West,265,0.0,0.0,84,0.00,,,0.33,,2013-06-12 14:02:00,
2013-06-12 10:11:00,85.0,78.0,30.04,West,259,0.0,0.0,81,0.00,,,0.33,,2013-06-12 14:11:00,
2013-06-12 10:24:00,85.0,78.0,30.04,West,259,0.0,0.0,81,0.00,,,0.33,,2013-06-12 14:24:00,
2013-06-12 10:33:00,85.0,78.0,30.04,West,259,0.0,0.0,81,0.00,,,0.33,,2013-06-12 14:33:00,
2013-06-12 10:43:00,86.0,78.0,30.04,West,263,0.0,0.0,78,0.00,,,0.33,,2013-06-12 14:43:00,
2013-06-12 10:53:00,86.0,78.0,30.04,West,263,0.0,0.0,78,0.00,,,0.33,,2013-06-12 14:53:00,
2013-06-12 11:01:00,87.0,79.0,30.05,West,263,0.0,0.0,77,0.00,,,0.33,,2013-06-12 15:01:00,
2013-06-12 11:12:00,87.0,77.0,30.05,West,263,0.0,0.0,73,0.00,,,0.33,,2013-06-12 15:12:00,
2013-06-12 11:23:00,87.0,78.0,30.05,South,180,0.0,0.0,76,0.00,,,0.33,,2013-06-12 15:23:00,
2013-06-12 11:33:00,87.0,79.0,30.06,South,179,0.0,0.0,77,0.00,,,0.33,,2013-06-12 15:33:00,
2013-06-12 11:43:00,87.0,80.0,30.06,South,185,0.0,0.0,79,0.00,,,0.33,,2013-06-12 15:43:00,
2013-06-12 11:52:00,87.0,79.0,30.05,South,173,0.0,0.0,78,0.00,,,0.33,,2013-06-12 15:52:00,
2013-06-12 12:02:00,87.0,80.0,30.05,South,180,0.0,0.0,79,0.00,,,0.33,,2013-06-12 16:02:00,
2013-06-12 12:12:00,87.0,80.0,30.05,South,180,0.0,0.0,79,0.00,,,0.33,,2013-06-12 16:12:00,
2013-06-12 12:22:00,88.0,80.0,30.06,SSE,163,0.0,0.0,77,0.00,,,0.33,,2013-06-12 16:22:00,
2013-06-12 12:32:00,88.0,80.0,30.05,SSE,163,0.0,0.0,78,0.00,,,0.33,,2013-06-12 16:32:00,
2013-06-12 12:43:00,87.0,79.0,30.05,South,170,0.0,0.0,77,0.00,,,0.33,,2013-06-12 16:43:00,
2013-06-12 12:53:00,87.0,80.0,30.05,South,175,0.0,0.0,79,0.01,,,0.34,,2013-06-12 16:53:00,
2013-06-12 13:01:00,86.0,80.0,30.05,SSW,195,0.0,0.0,82,0.02,,,0.35,,2013-06-12 17:01:00,
2013-06-12 13:12:00,85.0,80.0,30.05,South,177,0.0,0.0,84,0.02,,,0.35,,2013-06-12 17:12:00,
2013-06-12 13:23:00,86.0,80.0,30.04,South,180,0.0,0.0,83,0.02,,,0.35,,2013-06-12 17:23:00,
2013-06-12 13:33:00,86.0,80.0,30.04,South,180,0.0,0.0,83,0.02,,,0.35,,2013-06-12 17:33:00,
2013-06-12 13:42:00,85.0,78.0,30.04,SSW,193,0.0,0.0,80,0.02,,,0.35,,2013-06-12 17:42:00,
2013-06-12 13:52:00,85.0,79.0,30.04,SSW,207,0.0,0.0,82,0.01,,,0.35,,2013-06-12 17:52:00,
2013-06-12 14:02:00,85.0,78.0,30.04,SSW,205,0.0,0.0,81,0.00,,,0.35,,2013-06-12 18:02:00,
2013-06-12 14:12:00,86.0,79.0,30.03,SSW,197,0.0,0.0,81,0.00,,,0.35,,2013-06-12 18:12:00,
2013-06-12 14:22:00,87.0,80.0,30.03,SSW,196,0.0,0.0,79,0.00,,,0.35,,2013-06-12 18:22:00,
2013-06-12 14:33:00,87.0,80.0,30.03,SSW,196,0.0,0.0,79,0.00,,,0.35,,2013-06-12 18:33:00,
2013-06-12 14:43:00,87.0,79.0,30.03,SSW,204,0.0,0.0,78,0.00,,,0.35,,2013-06-12 18:43:00,
2013-06-12 14:53:00,87.0,79.0,30.03,SSW,204,0.0,0.0,78,0.00,,,0.35,,2013-06-12 18:53:00,
2013-06-12 15:01:00,86.0,79.0,30.03,SSW,203,0.0,0.0,79,0.00,,,0.35,,2013-06-12 19:01:00,
2013-06-12 15:11:00,85.0,78.0,30.03,SSW,194,0.0,0.0,81,0.00,,,0.35,,2013-06-12 19:11:00,
2013-06-12 15:22:00,84.0,78.0,30.03,South,187,0.0,0.0,82,0.00,,,0.35,,2013-06-12 19:22:00,
2013-06-12 15:32:00,84.0,78.0,30.03,SSW,200,0.0,0.0,83,0.01,,,0.36,,2013-06-12 19:32:00,
2013-06-12 15:42:00,84.0,78.0,30.03,SW,235,0.0,0.0,83,0.03,,,0.38,,2013-06-12 19:42:00,
2013-06-12 15:52:00,84.0,79.0,30.03,West,273,0.0,0.0,85,0.03,,,0.38,,2013-06-12 19:52:00,
2013-06-12 16:01:00,84.0,79.0,30.03,West,273,0.0,0.0,85,0.03,,,0.38,,2013-06-12 20:01:00,
2013-06-12 16:11:00,84.0,79.0,30.03,West,280,0.0,0.0,86,0.03,,,0.38,,2013-06-12 20:11:00,
2013-06-12 16:22:00,84.0,79.0,30.02,West,279,0.0,0.0,86,0.03,,,0.38,,2013-06-12 20:22:00,
2013-06-12 16:32:00,86.0,81.0,30.03,West,279,0.0,0.0,84,0.02,,,0.38,,2013-06-12 20:32:00,
2013-06-12 16:43:00,87.0,80.0,30.03,NNE,31,0.0,0.0,81,0.00,,,0.38,,2013-06-12 20:43:00,
2013-06-12 16:54:00,85.0,78.0,30.03,NE,38,0.0,0.0,81,0.00,,,0.38,,2013-06-12 20:54:00,
2013-06-12 17:01:00,82.0,77.0,30.03,NE,42,0.0,0.0,84,0.00,,,0.38,,2013-06-12 21:01:00,
2013-06-12 17:12:00,78.0,73.0,30.04,NE,48,0.0,0.0,84,0.03,,,0.41,,2013-06-12 21:12:00,
2013-06-12 17:22:00,77.0,73.0,30.04,NE,49,0.0,0.0,87,0.03,,,0.41,,2013-06-12 21:22:00,
2013-06-12 17:33:00,77.0,74.0,30.03,ENE,66,0.0,0.0,89,0.03,,,0.41,,2013-06-12 21:33:00,
2013-06-12 17:43:00,77.0,74.0,30.03,ENE,66,0.0,0.0,89,0.03,,,0.41,,2013-06-12 21:43:00,
2013-06-12 17:52:00,77.0,74.0,30.00,East,80,0.0,0.0,90,0.03,,,0.41,,2013-06-12 21:52:00,
2013-06-12 18:01:00,77.0,74.0,29.99,ESE,119,0.0,0.0,91,0.03,,,0.41,,2013-06-12 22:01:00,
2013-06-12 18:11:00,77.0,74.0,29.99,ESE,121,0.0,0.0,91,0.00,,,0.41,,2013-06-12 22:11:00,
2013-06-12 18:22:00,77.0,74.0,29.99,SSE,163,0.0,0.0,91,0.00,,,0.41,,2013-06-12 22:22:00,
2013-06-12 18:32:00,77.0,74.0,29.99,SSE,163,0.0,0.0,91,0.00,,,0.41,,2013-06-12 22:32:00,
2013-06-12 18:43:00,77.0,74.0,29.99,SSE,163,0.0,0.0,91,0.00,,,0.41,,2013-06-12 22:43:00,
2013-06-12 18:52:00,77.0,74.0,29.99,SSE,163,0.0,0.0,91,0.00,,,0.41,,2013-06-12 22:52:00,
2013-06-12 19:02:00,80.0,76.0,29.99,SE,140,0.0,0.0,89,0.00,,,0.41,,2013-06-12 23:02:00,
2013-06-12 19:12:00,81.0,77.0,29.98,South,181,0.0,0.0,88,0.00,,,0.41,,2013-06-12 23:12:00,
2013-06-12 19:22:00,81.0,76.0,29.98,SSE,163,0.0,0.0,84,0.00,,,0.41,,2013-06-12 23:22:00,
2013-06-12 19:32:00,82.0,75.0,29.98,SE,143,0.0,0.0,80,0.00,,,0.41,,2013-06-12 23:32:00,
2013-06-12 19:42:00,82.0,74.0,29.98,SE,129,0.0,0.0,77,0.00,,,0.41,,2013-06-12 23:42:00,
2013-06-12 19:52:00,82.0,74.0,29.98,SE,129,0.0,0.0,77,0.00,,,0.41,,2013-06-12 23:52:00,
2013-06-12 20:01:00,83.0,76.0,30.01,East,94,0.0,0.0,79,0.00,,,0.41,,2013-06-13 00:01:00,
2013-06-12 20:12:00,82.0,75.0,30.02,ENE,74,0.0,0.0,79,0.00,,,0.41,,2013-06-13 00:12:00,
2013-06-12 20:22:00,82.0,75.0,30.03,East,99,0.0,0.0,80,0.00,,,0.41,,2013-06-13 00:22:00,
2013-06-12 20:32:00,82.0,76.0,30.03,ENE,71,0.0,0.0,81,0.00,,,0.41,,2013-06-13 00:32:00,
2013-06-12 20:42:00,82.0,76.0,30.03,East,94,0.0,0.0,81,0.00,,,0.41,,2013-06-13 00:42:00,
2013-06-12 20:52:00,82.0,76.0,30.04,ENE,64,0.0,0.0,82,0.00,,,0.41,,2013-06-13 00:52:00,
2013-06-12 21:01:00,82.0,76.0,30.03,NE,45,0.0,0.0,83,0.00,,,0.41,,2013-06-13 01:01:00,
2013-06-12 21:12:00,82.0,77.0,30.04,NE,50,0.0,0.0,84,0.00,,,0.41,,2013-06-13 01:12:00,
2013-06-12 21:22:00,81.0,76.0,30.04,ENE,67,0.0,0.0,84,0.00,,,0.41,,2013-06-13 01:22:00,
2013-06-12 21:32:00,81.0,75.0,30.04,NNE,30,0.0,0.0,83,0.00,,,0.41,,2013-06-13 01:32:00,
2013-06-12 21:43:00,81.0,75.0,30.04,NE,52,0.0,0.0,83,0.00,,,0.41,,2013-06-13 01:43:00,
2013-06-12 21:53:00,81.0,75.0,30.04,ENE,78,0.0,0.0,82,0.00,,,0.41,,2013-06-13 01:53:00,
2013-06-12 22:02:00,81.0,75.0,30.04,ENE,72,0.0,0.0,81,0.00,,,0.41,,2013-06-13 02:02:00,
2013-06-12 22:12:00,81.0,74.0,30.03,East,86,0.0,0.0,80,0.00,,,0.41,,2013-06-13 02:12:00,
2013-06-12 22:22:00,81.0,75.0,30.03,East,100,0.0,0.0,82,0.00,,,0.41,,2013-06-13 02:22:00,
2013-06-12 22:33:00,81.0,76.0,30.03,East,100,0.0,0.0,84,0.00,,,0.41,,2013-06-13 02:33:00,
2013-06-12 22:43:00,81.0,76.0,30.03,East,100,0.0,0.0,84,0.00,,,0.41,,2013-06-13 02:43:00,
2013-06-12 22:52:00,80.0,74.0,30.03,East,84,0.0,0.0,83,0.00,,,0.41,,2013-06-13 02:52:00,
2013-06-12 23:02:00,80.0,74.0,30.02,SE,131,0.0,0.0,83,0.00,,,0.41,,2013-06-13 03:02:00,
2013-06-12 23:12:00,80.0,74.0,30.02,SE,131,0.0,0.0,83,0.00,,,0.41,,2013-06-13 03:12:00,
2013-06-12 23:22:00,80.0,75.0,30.03,East,98,0.0,0.0,84,0.00,,,0.41,,2013-06-13 03:22:00,
2013-06-12 23:33:00,80.0,75.0,30.03,East,98,0.0,0.0,84,0.00,,,0.41,,2013-06-13 03:33:00,
2013-06-12 23:42:00,80.0,74.0,30.03,ESE,113,0.0,0.0,83,0.00,,,0.41,,2013-06-13 03:42:00,
2013-06-12 23:52:00,80.0,74.0,30.03,ESE,115,0.0,0.0,83,0.00,,,0.41,,2013-06-13 03:52:00,